Search for airport 
image banner adimage banner adimage banner ad
image banner ad

4CL6 - Pat Coyle Memorial

Located in San Marcos, United States

ICAO - 4CL6, IATA -

Data provided by Airmate  

General information

Coordinates: N33°8'32" W117°8'44"
Elevation is 600 feet MSL.
Magnetic variation is 13° East
View others Airports in California

Operational data

Special qualification required
Current time UTC:
Current local time:
Weather at : KCRQ - Mc Clellan-Palomar ( 13 km )
METAR: KCRQ 211353Z AUTO 00000KT 7SM OVC008 16/14 A2996 RMK AO2 SLP142 T01610139
TAF: KCRQ 211140Z 2112/2212 VRB03KT P6SM OVC008 FM211600 25006KT P6SM BKN010 FM212000 27008KT P6SM SCT012 FM220100 VRB04KT P6SM BKN008
View NOTAMs / SUP AIP / TFR affecting this airport [VIEW]
Communications frequencies: [VIEW]

Runways:

Airport contact information

Address: San Marcos United States

Satellite view of 4CL6